Language: 


Des rapports , des résumés tant et plus, au choix de chacun....


Données Historiques de Météogheer
Journalier Rapport pour Janvier 26, 2018 Unitée:  Les deux    Impériale   Métrique
Suivant Jour »
Journalier Hebdomadaire Mensuel Annuel Sur mesure
  Max: Min: Moyenne:
Température: 48.4 °F /  9.1 °C 36.7 °F /  2.6 °C 42.1 °F /  5.6 °C
Point de rosée: 48.2 °F /  9.0 °C 37.4 °F /  3.0 °C 41.9 °F /  5.5 °C
Humidité: 98% 87% 96%
Vent: 7.6mph /  12.2km/h - 1.3mph /  2.1km/h
Rafales: 8.9mph /  14.3km/h - -
Vent- - WSW
Pression: 30.3 in /  1026.0 hPa 29.9 in /  1011.1 hPa -
Pluie: 0 in /  0.0 mm    
Historical Graphs
 
 
Données tabulaires pour Janvier 26, 2018
Heure Température Point de rosée Pression Vent Vent Rafales Humidité Pluie Taux (Horaire) Conditions
00:04 42.6 °F /  5.9 °C 42.8 °F /  6.0 °C 29.9in /  1011.1hPa SW 2.5mph /  4.0km/h 5.8mph /  9.3km/h 98% 0in /  0.0mm
00:09 42.4 °F /  5.8 °C 42.8 °F /  6.0 °C 29.9in /  1011.1hPa Calm   4.9mph /  7.9km/h 98% 0in /  0.0mm
00:14 42.4 °F /  5.8 °C 42.8 °F /  6.0 °C 29.9in /  1011.1hPa Calm   4.5mph /  7.2km/h 98% 0in /  0.0mm
00:19 42.3 °F /  5.7 °C 42.8 °F /  6.0 °C 29.9in /  1011.1hPa SSW 3.1mph /  5.0km/h 4.5mph /  7.2km/h 98% 0in /  0.0mm
00:24 42.3 °F /  5.7 °C 42.8 °F /  6.0 °C 29.9in /  1011.1hPa South 2.9mph /  4.7km/h 4.3mph /  6.9km/h 98% 0in /  0.0mm
00:29 42.3 °F /  5.7 °C 42.8 °F /  6.0 °C 29.9in /  1011.1hPa South 3.6mph /  5.8km/h 4.3mph /  6.9km/h 98% 0in /  0.0mm
00:34 42.3 °F /  5.7 °C 42.8 °F /  6.0 °C 29.9in /  1011.1hPa SSW 4.7mph /  7.6km/h 5.6mph /  9.0km/h 98% 0in /  0.0mm
00:39 42.1 °F /  5.6 °C 42.8 °F /  6.0 °C 29.9in /  1011.1hPa South 1.6mph /  2.6km/h 5.6mph /  9.0km/h 98% 0in /  0.0mm
00:44 41.9 °F /  5.5 °C 42.8 °F /  6.0 °C 29.9in /  1011.1hPa Calm   4mph /  6.4km/h 98% 0in /  0.0mm
00:49 41.7 °F /  5.4 °C 42.8 °F /  6.0 °C 29.9in /  1011.1hPa Calm   3.4mph /  5.5km/h 98% 0in /  0.0mm
00:54 41.4 °F /  5.2 °C 41 °F /  5.0 °C 29.9in /  1011.1hPa Calm   2mph /  3.2km/h 98% 0in /  0.0mm
00:59 41 °F /  5.0 °C 41 °F /  5.0 °C 29.9in /  1011.1hPa Calm   2mph /  3.2km/h 98% 0in /  0.0mm
01:04 41 °F /  5.0 °C 41 °F /  5.0 °C 29.9in /  1011.1hPa Calm   2.5mph /  4.0km/h 98% 0in /  0.0mm
01:09 41 °F /  5.0 °C 41 °F /  5.0 °C 29.9in /  1011.1hPa SSW 1.6mph /  2.6km/h 2.9mph /  4.7km/h 98% 0in /  0.0mm
01:14 41 °F /  5.0 °C 41 °F /  5.0 °C 29.9in /  1011.1hPa Calm   3.8mph /  6.1km/h 98% 0in /  0.0mm
01:19 41 °F /  5.0 °C 41 °F /  5.0 °C 29.9in /  1011.1hPa Calm   4mph /  6.4km/h 98% 0in /  0.0mm
01:24 41 °F /  5.0 °C 41 °F /  5.0 °C 29.9in /  1011.1hPa South 3.1mph /  5.0km/h 4mph /  6.4km/h 98% 0in /  0.0mm
01:29 41 °F /  5.0 °C 41 °F /  5.0 °C 29.9in /  1011.1hPa Calm   4.3mph /  6.9km/h 98% 0in /  0.0mm
01:34 41 °F /  5.0 °C 41 °F /  5.0 °C 29.9in /  1011.1hPa Calm   4.3mph /  6.9km/h 98% 0in /  0.0mm
01:39 41 °F /  5.0 °C 41 °F /  5.0 °C 29.9in /  1011.1hPa Calm   2.9mph /  4.7km/h 98% 0in /  0.0mm
01:44 41 °F /  5.0 °C 41 °F /  5.0 °C 29.9in /  1011.1hPa South 2mph /  3.2km/h 5.4mph /  8.7km/h 98% 0in /  0.0mm
01:49 40.8 °F /  4.9 °C 41 °F /  5.0 °C 29.9in /  1012.1hPa Calm   5.4mph /  8.7km/h 98% 0in /  0.0mm
01:54 40.8 °F /  4.9 °C 41 °F /  5.0 °C 29.9in /  1012.1hPa SSE 3.1mph /  5.0km/h 5.4mph /  8.7km/h 98% 0in /  0.0mm
01:59 40.8 °F /  4.9 °C 41 °F /  5.0 °C 29.9in /  1012.1hPa Calm   5.4mph /  8.7km/h 98% 0in /  0.0mm
02:04 40.6 °F /  4.8 °C 41 °F /  5.0 °C 29.9in /  1012.1hPa Calm   5.8mph /  9.3km/h 98% 0in /  0.0mm
02:09 40.6 °F /  4.8 °C 41 °F /  5.0 °C 29.9in /  1012.1hPa Calm   5.8mph /  9.3km/h 98% 0in /  0.0mm
02:14 40.5 °F /  4.7 °C 41 °F /  5.0 °C 29.9in /  1011.1hPa SSW 1.6mph /  2.6km/h 4mph /  6.4km/h 98% 0in /  0.0mm
02:19 40.5 °F /  4.7 °C 41 °F /  5.0 °C 29.9in /  1011.1hPa SSW 2mph /  3.2km/h 4mph /  6.4km/h 98% 0in /  0.0mm
02:24 40.5 °F /  4.7 °C 41 °F /  5.0 °C 29.9in /  1011.1hPa Calm   4mph /  6.4km/h 98% 0in /  0.0mm
02:29 40.5 °F /  4.7 °C 41 °F /  5.0 °C 29.9in /  1011.1hPa Calm   1.1mph /  1.8km/h 98% 0in /  0.0mm
02:34 40.3 °F /  4.6 °C 41 °F /  5.0 °C 29.9in /  1011.1hPa Calm     98% 0in /  0.0mm
02:39 40.1 °F /  4.5 °C 41 °F /  5.0 °C 29.9in /  1011.1hPa Calm   1.6mph /  2.6km/h 98% 0in /  0.0mm
02:44 39.9 °F /  4.4 °C 39.2 °F /  4.0 °C 29.9in /  1011.1hPa Calm   2mph /  3.2km/h 98% 0in /  0.0mm
02:49 39.7 °F /  4.3 °C 39.2 °F /  4.0 °C 29.9in /  1011.1hPa Calm   2.9mph /  4.7km/h 98% 0in /  0.0mm
02:55 39.7 °F /  4.3 °C 39.2 °F /  4.0 °C 29.9in /  1011.1hPa South 3.1mph /  5.0km/h 3.1mph /  5.0km/h 98% 0in /  0.0mm
03:00 39.7 °F /  4.3 °C 39.2 °F /  4.0 °C 29.9in /  1011.1hPa Calm   4mph /  6.4km/h 98% 0in /  0.0mm
03:05 39.9 °F /  4.4 °C 39.2 °F /  4.0 °C 29.9in /  1011.1hPa South 3.1mph /  5.0km/h 4mph /  6.4km/h 98% 0in /  0.0mm
03:10 39.9 °F /  4.4 °C 39.2 °F /  4.0 °C 29.9in /  1011.1hPa South 3.4mph /  5.5km/h 4mph /  6.4km/h 98% 0in /  0.0mm
03:15 39.9 °F /  4.4 °C 39.2 °F /  4.0 °C 29.9in /  1011.1hPa South 4.7mph /  7.6km/h 5.6mph /  9.0km/h 98% 0in /  0.0mm
03:20 39.7 °F /  4.3 °C 39.2 °F /  4.0 °C 29.9in /  1011.1hPa South 5.4mph /  8.7km/h 5.8mph /  9.3km/h 98% 0in /  0.0mm
03:25 39.7 °F /  4.3 °C 39.2 °F /  4.0 °C 29.9in /  1011.1hPa SSW 4.3mph /  6.9km/h 5.8mph /  9.3km/h 98% 0in /  0.0mm
03:30 39.9 °F /  4.4 °C 39.2 °F /  4.0 °C 29.9in /  1011.1hPa Calm   4.9mph /  7.9km/h 98% 0in /  0.0mm
03:35 39.7 °F /  4.3 °C 39.2 °F /  4.0 °C 29.9in /  1011.1hPa Calm   4.3mph /  6.9km/h 98% 0in /  0.0mm
03:40 39.7 °F /  4.3 °C 39.2 °F /  4.0 °C 29.9in /  1011.1hPa South 2.5mph /  4.0km/h 3.1mph /  5.0km/h 98% 0in /  0.0mm
03:45 39.4 °F /  4.1 °C 39.2 °F /  4.0 °C 29.9in /  1011.1hPa Calm   3.6mph /  5.8km/h 98% 0in /  0.0mm
03:50 39.4 °F /  4.1 °C 39.2 °F /  4.0 °C 29.9in /  1011.1hPa Calm   3.8mph /  6.1km/h 98% 0in /  0.0mm
03:55 39.4 °F /  4.1 °C 39.2 °F /  4.0 °C 29.9in /  1011.1hPa South 1.3mph /  2.1km/h 5.4mph /  8.7km/h 98% 0in /  0.0mm
04:00 39.4 °F /  4.1 °C 39.2 °F /  4.0 °C 29.9in /  1011.1hPa SSE 4.3mph /  6.9km/h 5.6mph /  9.0km/h 98% 0in /  0.0mm
04:05 39.4 °F /  4.1 °C 39.2 °F /  4.0 °C 29.9in /  1011.1hPa Calm   6.3mph /  10.1km/h 98% 0in /  0.0mm
04:10 39.6 °F /  4.2 °C 39.2 °F /  4.0 °C 29.9in /  1011.1hPa SSW 5.4mph /  8.7km/h 6.3mph /  10.1km/h 98% 0in /  0.0mm
04:16 39.6 °F /  4.2 °C 39.2 °F /  4.0 °C 29.9in /  1011.1hPa SSW 1.3mph /  2.1km/h 6.3mph /  10.1km/h 98% 0in /  0.0mm
04:21 39.6 °F /  4.2 °C 39.2 °F /  4.0 °C 29.9in /  1011.1hPa South 2.5mph /  4.0km/h 6.3mph /  10.1km/h 98% 0in /  0.0mm
04:26 39.4 °F /  4.1 °C 39.2 °F /  4.0 °C 29.9in /  1011.1hPa South 1.1mph /  1.8km/h 4.3mph /  6.9km/h 98% 0in /  0.0mm
04:31 39.2 °F /  4.0 °C 39.2 °F /  4.0 °C 29.9in /  1012.1hPa Calm   2.9mph /  4.7km/h 98% 0in /  0.0mm
04:36 39 °F /  3.9 °C 39.2 °F /  4.0 °C 29.9in /  1012.1hPa Calm   2mph /  3.2km/h 98% 0in /  0.0mm
04:41 38.8 °F /  3.8 °C 39.2 °F /  4.0 °C 29.9in /  1012.1hPa Calm   2mph /  3.2km/h 98% 0in /  0.0mm
04:46 38.5 °F /  3.6 °C 39.2 °F /  4.0 °C 29.9in /  1011.1hPa Calm   2mph /  3.2km/h 98% 0in /  0.0mm
04:51 38.3 °F /  3.5 °C 39.2 °F /  4.0 °C 29.9in /  1011.1hPa Calm   0.9mph /  1.4km/h 98% 0in /  0.0mm
04:56 38.3 °F /  3.5 °C 39.2 °F /  4.0 °C 29.9in /  1011.1hPa Calm   0.9mph /  1.4km/h 98% 0in /  0.0mm
05:01 38.3 °F /  3.5 °C 39.2 °F /  4.0 °C 29.9in /  1011.1hPa Calm     98% 0in /  0.0mm
05:06 38.5 °F /  3.6 °C 39.2 °F /  4.0 °C 29.9in /  1011.1hPa Calm   2.7mph /  4.3km/h 98% 0in /  0.0mm
05:11 38.5 °F /  3.6 °C 39.2 °F /  4.0 °C 29.9in /  1011.1hPa Calm   2.7mph /  4.3km/h 98% 0in /  0.0mm
05:16 38.3 °F /  3.5 °C 39.2 °F /  4.0 °C 29.9in /  1012.1hPa Calm     98% 0in /  0.0mm
05:21 38.3 °F /  3.5 °C 39.2 °F /  4.0 °C 29.9in /  1012.1hPa Calm   2.7mph /  4.3km/h 98% 0in /  0.0mm
05:26 38.1 °F /  3.4 °C 37.4 °F /  3.0 °C 29.9in /  1012.1hPa Calm   3.4mph /  5.5km/h 98% 0in /  0.0mm
05:31 38.1 °F /  3.4 °C 37.4 °F /  3.0 °C 29.9in /  1012.1hPa Calm   4mph /  6.4km/h 98% 0in /  0.0mm
05:36 38.1 °F /  3.4 °C 37.4 °F /  3.0 °C 29.9in /  1012.1hPa South 5.4mph /  8.7km/h 5.4mph /  8.7km/h 98% 0in /  0.0mm
05:41 38.1 °F /  3.4 °C 37.4 °F /  3.0 °C 29.9in /  1012.1hPa Calm   5.4mph /  8.7km/h 98% 0in /  0.0mm
05:46 38.1 °F /  3.4 °C 37.4 °F /  3.0 °C 29.9in /  1012.1hPa Calm   5.4mph /  8.7km/h 98% 0in /  0.0mm
05:51 38.3 °F /  3.5 °C 39.2 °F /  4.0 °C 29.9in /  1012.1hPa Calm   3.1mph /  5.0km/h 98% 0in /  0.0mm
05:56 38.5 °F /  3.6 °C 39.2 °F /  4.0 °C 29.9in /  1012.1hPa Calm   3.8mph /  6.1km/h 98% 0in /  0.0mm
06:01 38.5 °F /  3.6 °C 39.2 °F /  4.0 °C 29.9in /  1013.1hPa Calm   3.8mph /  6.1km/h 98% 0in /  0.0mm
06:06 38.5 °F /  3.6 °C 39.2 °F /  4.0 °C 29.9in /  1013.1hPa Calm   2.9mph /  4.7km/h 98% 0in /  0.0mm
06:12 38.5 °F /  3.6 °C 39.2 °F /  4.0 °C 29.9in /  1013.1hPa Calm   2.9mph /  4.7km/h 98% 0in /  0.0mm
06:17 38.5 °F /  3.6 °C 39.2 °F /  4.0 °C 29.9in /  1013.1hPa Calm   3.4mph /  5.5km/h 98% 0in /  0.0mm
06:22 38.3 °F /  3.5 °C 39.2 °F /  4.0 °C 29.9in /  1013.1hPa Calm   5.8mph /  9.3km/h 98% 0in /  0.0mm
06:27 38.5 °F /  3.6 °C 39.2 °F /  4.0 °C 29.9in /  1013.1hPa SSE 6.3mph /  10.1km/h 6.3mph /  10.1km/h 98% 0in /  0.0mm
06:32 38.5 °F /  3.6 °C 39.2 °F /  4.0 °C 29.9in /  1013.1hPa South 5.8mph /  9.3km/h 6.5mph /  10.5km/h 98% 0in /  0.0mm
06:37 38.5 °F /  3.6 °C 39.2 °F /  4.0 °C 29.9in /  1013.1hPa South 3.6mph /  5.8km/h 6.5mph /  10.5km/h 98% 0in /  0.0mm
06:42 38.5 °F /  3.6 °C 39.2 °F /  4.0 °C 29.9in /  1013.1hPa Calm   5.8mph /  9.3km/h 98% 0in /  0.0mm
06:47 38.5 °F /  3.6 °C 39.2 °F /  4.0 °C 29.9in /  1013.1hPa SSW 2.2mph /  3.5km/h 5.4mph /  8.7km/h 98% 0in /  0.0mm
06:52 38.3 °F /  3.5 °C 39.2 °F /  4.0 °C 29.9in /  1013.1hPa South 2mph /  3.2km/h 3.1mph /  5.0km/h 98% 0in /  0.0mm
06:57 38.5 °F /  3.6 °C 39.2 °F /  4.0 °C 29.9in /  1013.1hPa Calm   2.7mph /  4.3km/h 98% 0in /  0.0mm
07:02 38.5 °F /  3.6 °C 39.2 °F /  4.0 °C 29.9in /  1013.1hPa Calm   4mph /  6.4km/h 98% 0in /  0.0mm
07:07 38.7 °F /  3.7 °C 39.2 °F /  4.0 °C 29.9in /  1013.1hPa Calm   4mph /  6.4km/h 98% 0in /  0.0mm
07:12 38.3 °F /  3.5 °C 39.2 °F /  4.0 °C 29.9in /  1013.1hPa Calm   3.6mph /  5.8km/h 98% 0in /  0.0mm
07:17 38.1 °F /  3.4 °C 37.4 °F /  3.0 °C 29.9in /  1012.1hPa Calm     98% 0in /  0.0mm
07:22 37.8 °F /  3.2 °C 37.4 °F /  3.0 °C 29.9in /  1012.1hPa Calm     98% 0in /  0.0mm
07:27 37.6 °F /  3.1 °C 37.4 °F /  3.0 °C 29.9in /  1012.1hPa Calm     98% 0in /  0.0mm
07:32 37.6 °F /  3.1 °C 37.4 °F /  3.0 °C 29.9in /  1013.1hPa Calm     98% 0in /  0.0mm
07:37 37.6 °F /  3.1 °C 37.4 °F /  3.0 °C 29.9in /  1013.1hPa Calm     98% 0in /  0.0mm
07:42 37.4 °F /  3.0 °C 37.4 °F /  3.0 °C 29.9in /  1013.1hPa Calm     98% 0in /  0.0mm
07:47 37.4 °F /  3.0 °C 37.4 °F /  3.0 °C 29.9in /  1013.1hPa Calm     98% 0in /  0.0mm
07:52 37.2 °F /  2.9 °C 37.4 °F /  3.0 °C 29.9in /  1013.1hPa Calm   0.9mph /  1.4km/h 98% 0in /  0.0mm
07:57 37.2 °F /  2.9 °C 37.4 °F /  3.0 °C 29.9in /  1013.1hPa Calm   1.1mph /  1.8km/h 98% 0in /  0.0mm
08:02 37.4 °F /  3.0 °C 37.4 °F /  3.0 °C 29.9in /  1013.1hPa Calm   1.1mph /  1.8km/h 98% 0in /  0.0mm
08:07 37.4 °F /  3.0 °C 37.4 °F /  3.0 °C 29.9in /  1013.1hPa Calm   0.9mph /  1.4km/h 98% 0in /  0.0mm
08:12 37.4 °F /  3.0 °C 37.4 °F /  3.0 °C 29.9in /  1013.1hPa Calm   0.9mph /  1.4km/h 98% 0in /  0.0mm
08:17 37.4 °F /  3.0 °C 37.4 °F /  3.0 °C 29.9in /  1014.1hPa Calm     98% 0in /  0.0mm
08:22 37.4 °F /  3.0 °C 37.4 °F /  3.0 °C 29.9in /  1014.1hPa Calm   0.9mph /  1.4km/h 98% 0in /  0.0mm
08:27 37 °F /  2.8 °C 37.4 °F /  3.0 °C 29.9in /  1014.1hPa Calm   0.9mph /  1.4km/h 98% 0in /  0.0mm
08:32 37 °F /  2.8 °C 37.4 °F /  3.0 °C 29.9in /  1014.1hPa Calm     98% 0in /  0.0mm
08:37 37 °F /  2.8 °C 37.4 °F /  3.0 °C 29.9in /  1014.1hPa Calm     98% 0in /  0.0mm
08:42 37 °F /  2.8 °C 37.4 °F /  3.0 °C 29.9in /  1014.1hPa Calm     98% 0in /  0.0mm
08:47 36.9 °F /  2.7 °C 37.4 °F /  3.0 °C 30in /  1015.1hPa Calm     98% 0in /  0.0mm
08:52 36.7 °F /  2.6 °C 37.4 °F /  3.0 °C 30in /  1015.1hPa Calm     98% 0in /  0.0mm
08:57 36.9 °F /  2.7 °C 37.4 °F /  3.0 °C 30in /  1015.1hPa Calm     98% 0in /  0.0mm
09:00 36.9 °F /  2.7 °C 37.4 °F /  3.0 °C 30in /  1015.1hPa Calm     98% 0in /  0.0mm
09:05 37 °F /  2.8 °C 37.4 °F /  3.0 °C 30in /  1015.1hPa Calm     98% 0in /  0.0mm
09:11 37.2 °F /  2.9 °C 37.4 °F /  3.0 °C 30in /  1015.1hPa Calm   1.6mph /  2.6km/h 98% 0in /  0.0mm
09:16 37.6 °F /  3.1 °C 37.4 °F /  3.0 °C 30in /  1015.1hPa South 0.9mph /  1.4km/h 1.6mph /  2.6km/h 98% 0in /  0.0mm
09:21 37.9 °F /  3.3 °C 37.4 °F /  3.0 °C 30in /  1015.1hPa Calm   0.9mph /  1.4km/h 98% 0in /  0.0mm
09:26 38.1 °F /  3.4 °C 37.4 °F /  3.0 °C 30in /  1015.1hPa Calm   0.9mph /  1.4km/h 98% 0in /  0.0mm
09:31 38.5 °F /  3.6 °C 39.2 °F /  4.0 °C 30in /  1015.1hPa Calm   2mph /  3.2km/h 98% 0in /  0.0mm
09:36 38.7 °F /  3.7 °C 39.2 °F /  4.0 °C 30in /  1015.1hPa Calm   2mph /  3.2km/h 98% 0in /  0.0mm
09:41 38.8 °F /  3.8 °C 39.2 °F /  4.0 °C 30in /  1015.1hPa Calm     98% 0in /  0.0mm
09:46 38.8 °F /  3.8 °C 39.2 °F /  4.0 °C 30in /  1015.1hPa Calm     98% 0in /  0.0mm
09:51 38.8 °F /  3.8 °C 39.2 °F /  4.0 °C 30in /  1015.1hPa Calm   2.7mph /  4.3km/h 98% 0in /  0.0mm
09:56 38.8 °F /  3.8 °C 39.2 °F /  4.0 °C 30in /  1015.1hPa Calm   2.7mph /  4.3km/h 98% 0in /  0.0mm
10:01 39 °F /  3.9 °C 39.2 °F /  4.0 °C 30in /  1016.1hPa Calm     98% 0in /  0.0mm
10:06 39.4 °F /  4.1 °C 39.2 °F /  4.0 °C 30in /  1016.1hPa Calm     98% 0in /  0.0mm
10:11 39.9 °F /  4.4 °C 39.2 °F /  4.0 °C 30in /  1016.1hPa Calm     98% 0in /  0.0mm
10:16 40.1 °F /  4.5 °C 41 °F /  5.0 °C 30in /  1016.1hPa Calm   2mph /  3.2km/h 98% 0in /  0.0mm
10:21 40.5 °F /  4.7 °C 41 °F /  5.0 °C 30in /  1016.1hPa Calm   4.5mph /  7.2km/h 98% 0in /  0.0mm
10:26 41 °F /  5.0 °C 41 °F /  5.0 °C 30in /  1016.1hPa Calm   4.5mph /  7.2km/h 98% 0in /  0.0mm
10:31 41.2 °F /  5.1 °C 41 °F /  5.0 °C 30in /  1016.1hPa South 2.9mph /  4.7km/h 3.6mph /  5.8km/h 98% 0in /  0.0mm
10:36 41.2 °F /  5.1 °C 41 °F /  5.0 °C 30in /  1016.1hPa Calm   5.8mph /  9.3km/h 98% 0in /  0.0mm
10:41 41.5 °F /  5.3 °C 42.8 °F /  6.0 °C 30in /  1016.1hPa South 1.6mph /  2.6km/h 5.8mph /  9.3km/h 98% 0in /  0.0mm
10:46 41.5 °F /  5.3 °C 42.8 °F /  6.0 °C 30in /  1016.8hPa Calm   1.6mph /  2.6km/h 98% 0in /  0.0mm
10:51 41.5 °F /  5.3 °C 42.8 °F /  6.0 °C 30in /  1016.8hPa SSW 2.7mph /  4.3km/h 2.7mph /  4.3km/h 98% 0in /  0.0mm
10:56 41.7 °F /  5.4 °C 42.8 °F /  6.0 °C 30in /  1016.8hPa South 2.5mph /  4.0km/h 2.7mph /  4.3km/h 98% 0in /  0.0mm
11:01 41.7 °F /  5.4 °C 42.8 °F /  6.0 °C 30in /  1016.8hPa Calm   3.8mph /  6.1km/h 98% 0in /  0.0mm
11:06 41.9 °F /  5.5 °C 42.8 °F /  6.0 °C 30in /  1016.8hPa Calm   3.8mph /  6.1km/h 98% 0in /  0.0mm
11:11 42.1 °F /  5.6 °C 42.8 °F /  6.0 °C 30in /  1016.8hPa South 4.3mph /  6.9km/h 5.6mph /  9.0km/h 98% 0in /  0.0mm
11:17 42.3 °F /  5.7 °C 42.8 °F /  6.0 °C 30in /  1016.8hPa Calm   5.6mph /  9.0km/h 98% 0in /  0.0mm
11:22 42.4 °F /  5.8 °C 42.8 °F /  6.0 °C 30in /  1016.8hPa Calm   2.7mph /  4.3km/h 98% 0in /  0.0mm
11:27 43.5 °F /  6.4 °C 42.8 °F /  6.0 °C 30in /  1016.8hPa Calm   6mph /  9.7km/h 98% 0in /  0.0mm
11:32 43.9 °F /  6.6 °C 44.6 °F /  7.0 °C 30in /  1016.8hPa Calm   6mph /  9.7km/h 98% 0in /  0.0mm
11:37 44.2 °F /  6.8 °C 44.6 °F /  7.0 °C 30in /  1016.8hPa SW 5.4mph /  8.7km/h 6mph /  9.7km/h 98% 0in /  0.0mm
11:42 44.2 °F /  6.8 °C 44.6 °F /  7.0 °C 30in /  1016.8hPa SSW 4.7mph /  7.6km/h 6mph /  9.7km/h 98% 0in /  0.0mm
11:47 44.2 °F /  6.8 °C 44.6 °F /  7.0 °C 30in /  1016.8hPa SW 7.2mph /  11.6km/h 7.2mph /  11.6km/h 98% 0in /  0.0mm
11:52 44.2 °F /  6.8 °C 44.6 °F /  7.0 °C 30in /  1016.8hPa SW 4.9mph /  7.9km/h 7.4mph /  11.9km/h 98% 0in /  0.0mm
11:57 44.2 °F /  6.8 °C 44.6 °F /  7.0 °C 30in /  1016.8hPa WSW 6mph /  9.7km/h 7.8mph /  12.6km/h 98% 0in /  0.0mm
12:02 44.6 °F /  7.0 °C 44.6 °F /  7.0 °C 30in /  1016.8hPa Calm   7.8mph /  12.6km/h 98% 0in /  0.0mm
12:07 45 °F /  7.2 °C 44.6 °F /  7.0 °C 30in /  1016.8hPa Calm   6.5mph /  10.5km/h 98% 0in /  0.0mm
12:12 45.5 °F /  7.5 °C 46.4 °F /  8.0 °C 30in /  1016.8hPa WSW 6.3mph /  10.1km/h 6.3mph /  10.1km/h 98% 0in /  0.0mm
12:17 46.2 °F /  7.9 °C 46.4 °F /  8.0 °C 30in /  1016.8hPa WSW 5.4mph /  8.7km/h 6.3mph /  10.1km/h 98% 0in /  0.0mm
12:22 46.8 °F /  8.2 °C 46.4 °F /  8.0 °C 30in /  1016.8hPa SSW 6.3mph /  10.1km/h 6.3mph /  10.1km/h 98% 0in /  0.0mm
12:27 46.8 °F /  8.2 °C 46.4 °F /  8.0 °C 30in /  1016.8hPa West 5.8mph /  9.3km/h 6.3mph /  10.1km/h 98% 0in /  0.0mm
12:32 46.8 °F /  8.2 °C 46.4 °F /  8.0 °C 30in /  1016.8hPa WSW 5.8mph /  9.3km/h 6.5mph /  10.5km/h 98% 0in /  0.0mm
12:37 46.8 °F /  8.2 °C 46.4 °F /  8.0 °C 30in /  1016.8hPa SW 5.8mph /  9.3km/h 6.5mph /  10.5km/h 98% 0in /  0.0mm
12:42 46.8 °F /  8.2 °C 46.4 °F /  8.0 °C 30in /  1016.8hPa WSW 4.9mph /  7.9km/h 6.3mph /  10.1km/h 98% 0in /  0.0mm
12:47 46.6 °F /  8.1 °C 46.4 °F /  8.0 °C 30.1in /  1018.2hPa WSW 3.6mph /  5.8km/h 6.3mph /  10.1km/h 98% 0in /  0.0mm
12:52 46.6 °F /  8.1 °C 46.4 °F /  8.0 °C 30.1in /  1018.2hPa WSW 4.9mph /  7.9km/h 6.3mph /  10.1km/h 98% 0in /  0.0mm
12:57 46.6 °F /  8.1 °C 46.4 °F /  8.0 °C 30.1in /  1018.2hPa WSW 4mph /  6.4km/h 6.3mph /  10.1km/h 98% 0in /  0.0mm
13:02 46.8 °F /  8.2 °C 46.4 °F /  8.0 °C 30.1in /  1018.2hPa WSW 7.6mph /  12.2km/h 7.6mph /  12.2km/h 98% 0in /  0.0mm
13:07 46.8 °F /  8.2 °C 46.4 °F /  8.0 °C 30.1in /  1018.2hPa West 5.6mph /  9.0km/h 7.6mph /  12.2km/h 98% 0in /  0.0mm
13:12 47.1 °F /  8.4 °C 48.2 °F /  9.0 °C 30.1in /  1018.2hPa WSW 5.8mph /  9.3km/h 7.8mph /  12.6km/h 98% 0in /  0.0mm
13:17 47.1 °F /  8.4 °C 48.2 °F /  9.0 °C 30in /  1016.8hPa West 7.2mph /  11.6km/h 7.8mph /  12.6km/h 98% 0in /  0.0mm
13:23 47.1 °F /  8.4 °C 48.2 °F /  9.0 °C 30in /  1016.8hPa West 5.6mph /  9.0km/h 7.2mph /  11.6km/h 98% 0in /  0.0mm
13:28 47.1 °F /  8.4 °C 48.2 °F /  9.0 °C 30in /  1016.8hPa WSW 6mph /  9.7km/h 7.6mph /  12.2km/h 98% 0in /  0.0mm
13:33 47.1 °F /  8.4 °C 48.2 °F /  9.0 °C 30.1in /  1018.2hPa West 4.5mph /  7.2km/h 7.6mph /  12.2km/h 98% 0in /  0.0mm
13:38 47.3 °F /  8.5 °C 48.2 °F /  9.0 °C 30.1in /  1018.2hPa Calm   7.2mph /  11.6km/h 98% 0in /  0.0mm
13:43 47.1 °F /  8.4 °C 48.2 °F /  9.0 °C 30.1in /  1018.2hPa Calm   7.4mph /  11.9km/h 98% 0in /  0.0mm
13:48 47.1 °F /  8.4 °C 48.2 °F /  9.0 °C 30.1in /  1018.2hPa West 4.5mph /  7.2km/h 7.4mph /  11.9km/h 98% 0in /  0.0mm
13:53 47.3 °F /  8.5 °C 48.2 °F /  9.0 °C 30.1in /  1018.2hPa Calm   5.4mph /  8.7km/h 98% 0in /  0.0mm
13:58 47.3 °F /  8.5 °C 48.2 °F /  9.0 °C 30.1in /  1018.2hPa WSW 4.5mph /  7.2km/h 5.6mph /  9.0km/h 98% 0in /  0.0mm
14:03 47.3 °F /  8.5 °C 48.2 °F /  9.0 °C 30.1in /  1018.2hPa WSW 6mph /  9.7km/h 6mph /  9.7km/h 98% 0in /  0.0mm
14:08 47.1 °F /  8.4 °C 48.2 °F /  9.0 °C 30.1in /  1018.2hPa West 3.6mph /  5.8km/h 6mph /  9.7km/h 98% 0in /  0.0mm
14:13 47.3 °F /  8.5 °C 48.2 °F /  9.0 °C 30.1in /  1018.2hPa West 5.4mph /  8.7km/h 6.5mph /  10.5km/h 98% 0in /  0.0mm
14:18 47.5 °F /  8.6 °C 48.2 °F /  9.0 °C 30.1in /  1018.2hPa Calm   6.5mph /  10.5km/h 98% 0in /  0.0mm
14:23 47.7 °F /  8.7 °C 48.2 °F /  9.0 °C 30.1in /  1018.2hPa Calm   6.3mph /  10.1km/h 98% 0in /  0.0mm
14:28 47.7 °F /  8.7 °C 48.2 °F /  9.0 °C 30.1in /  1018.2hPa Calm   4.3mph /  6.9km/h 98% 0in /  0.0mm
14:33 47.7 °F /  8.7 °C 48.2 °F /  9.0 °C 30.1in /  1018.2hPa WSW 3.8mph /  6.1km/h 4.3mph /  6.9km/h 97% 0in /  0.0mm
14:38 47.7 °F /  8.7 °C 48.2 °F /  9.0 °C 30.1in /  1018.2hPa Calm   4.3mph /  6.9km/h 97% 0in /  0.0mm
14:43 47.7 °F /  8.7 °C 48.2 °F /  9.0 °C 30.1in /  1018.2hPa Calm   4.3mph /  6.9km/h 97% 0in /  0.0mm
14:48 47.8 °F /  8.8 °C 48.2 °F /  9.0 °C 30.1in /  1018.2hPa Calm   2.5mph /  4.0km/h 97% 0in /  0.0mm
14:53 48 °F /  8.9 °C 48.2 °F /  9.0 °C 30.1in /  1018.2hPa Calm   2mph /  3.2km/h 97% 0in /  0.0mm
14:58 48 °F /  8.9 °C 48.2 °F /  9.0 °C 30.1in /  1018.2hPa Calm     97% 0in /  0.0mm
15:03 48.2 °F /  9.0 °C 48.2 °F /  9.0 °C 30.1in /  1018.8hPa Calm     96% 0in /  0.0mm
15:08 48.4 °F /  9.1 °C 48.2 °F /  9.0 °C 30.1in /  1018.8hPa Calm     96% 0in /  0.0mm
15:13 48.4 °F /  9.1 °C 48.2 °F /  9.0 °C 30.1in /  1018.8hPa Calm     96% 0in /  0.0mm
15:18 48.2 °F /  9.0 °C 48.2 °F /  9.0 °C 30.1in /  1018.8hPa Calm   3.1mph /  5.0km/h 95% 0in /  0.0mm
15:23 48 °F /  8.9 °C 48.2 °F /  9.0 °C 30.1in /  1018.8hPa NNE 1.1mph /  1.8km/h 3.1mph /  5.0km/h 95% 0in /  0.0mm
15:28 48 °F /  8.9 °C 48.2 °F /  9.0 °C 30.1in /  1018.8hPa Calm   1.1mph /  1.8km/h 95% 0in /  0.0mm
15:33 48.2 °F /  9.0 °C 46.4 °F /  8.0 °C 30.1in /  1018.8hPa Calm   1.1mph /  1.8km/h 94% 0in /  0.0mm
15:38 48.2 °F /  9.0 °C 46.4 °F /  8.0 °C 30.1in /  1018.8hPa WSW 3.6mph /  5.8km/h 3.8mph /  6.1km/h 94% 0in /  0.0mm
15:43 47.8 °F /  8.8 °C 46.4 °F /  8.0 °C 30.1in /  1018.8hPa North 4.3mph /  6.9km/h 8.9mph /  14.3km/h 94% 0in /  0.0mm
15:49 47.8 °F /  8.8 °C 46.4 °F /  8.0 °C 30.1in /  1018.8hPa North 3.8mph /  6.1km/h 8.9mph /  14.3km/h 93% 0in /  0.0mm
15:54 47.7 °F /  8.7 °C 46.4 °F /  8.0 °C 30.1in /  1018.8hPa NNW 5.4mph /  8.7km/h 5.8mph /  9.3km/h 92% 0in /  0.0mm
15:59 47.7 °F /  8.7 °C 46.4 °F /  8.0 °C 30.1in /  1019.9hPa WNW 0.9mph /  1.4km/h 5.4mph /  8.7km/h 92% 0in /  0.0mm
16:04 47.7 °F /  8.7 °C 46.4 °F /  8.0 °C 30.1in /  1019.9hPa NNW 6mph /  9.7km/h 6mph /  9.7km/h 92% 0in /  0.0mm
16:09 47.7 °F /  8.7 °C 46.4 °F /  8.0 °C 30.1in /  1019.9hPa North 7.2mph /  11.6km/h 7.2mph /  11.6km/h 92% 0in /  0.0mm
16:14 47.5 °F /  8.6 °C 44.6 °F /  7.0 °C 30.1in /  1019.9hPa NW 4mph /  6.4km/h 8.1mph /  13.0km/h 89% 0in /  0.0mm
16:19 47.5 °F /  8.6 °C 44.6 °F /  7.0 °C 30.1in /  1019.9hPa NNW 5.4mph /  8.7km/h 8.1mph /  13.0km/h 88% 0in /  0.0mm
16:24 47.3 °F /  8.5 °C 44.6 °F /  7.0 °C 30.1in /  1019.9hPa WNW 3.8mph /  6.1km/h 6.3mph /  10.1km/h 88% 0in /  0.0mm
16:29 47.3 °F /  8.5 °C 44.6 °F /  7.0 °C 30.1in /  1019.9hPa WNW 1.3mph /  2.1km/h 5.6mph /  9.0km/h 89% 0in /  0.0mm
16:34 47.1 °F /  8.4 °C 44.6 °F /  7.0 °C 30.1in /  1019.9hPa North 3.6mph /  5.8km/h 4.9mph /  7.9km/h 88% 0in /  0.0mm
16:39 47.1 °F /  8.4 °C 44.6 °F /  7.0 °C 30.1in /  1019.9hPa NW 3.6mph /  5.8km/h 4.9mph /  7.9km/h 88% 0in /  0.0mm
16:44 46.9 °F /  8.3 °C 44.6 °F /  7.0 °C 30.1in /  1019.9hPa NNW 3.8mph /  6.1km/h 5.6mph /  9.0km/h 87% 0in /  0.0mm
16:49 46.6 °F /  8.1 °C 42.8 °F /  6.0 °C 30.1in /  1019.9hPa Calm   5.6mph /  9.0km/h 87% 0in /  0.0mm
16:54 46.4 °F /  8.0 °C 42.8 °F /  6.0 °C 30.1in /  1019.9hPa NW 5.4mph /  8.7km/h 5.4mph /  8.7km/h 87% 0in /  0.0mm
16:59 46.2 °F /  7.9 °C 42.8 °F /  6.0 °C 30.2in /  1020.9hPa NNW 0.9mph /  1.4km/h 5.4mph /  8.7km/h 87% 0in /  0.0mm
17:04 45.9 °F /  7.7 °C 42.8 °F /  6.0 °C 30.2in /  1020.9hPa NW 4.3mph /  6.9km/h 4.9mph /  7.9km/h 87% 0in /  0.0mm
17:09 45.5 °F /  7.5 °C 42.8 °F /  6.0 °C 30.2in /  1020.9hPa WNW 1.3mph /  2.1km/h 4.7mph /  7.6km/h 87% 0in /  0.0mm
17:14 45.5 °F /  7.5 °C 42.8 °F /  6.0 °C 30.2in /  1020.9hPa Calm   4.7mph /  7.6km/h 88% 0in /  0.0mm
17:19 45.1 °F /  7.3 °C 42.8 °F /  6.0 °C 30.2in /  1020.9hPa Calm   3.1mph /  5.0km/h 88% 0in /  0.0mm
17:24 44.6 °F /  7.0 °C 41 °F /  5.0 °C 30.2in /  1020.9hPa Calm   1.6mph /  2.6km/h 88% 0in /  0.0mm
17:29 44.2 °F /  6.8 °C 41 °F /  5.0 °C 30.2in /  1020.9hPa Calm   1.6mph /  2.6km/h 89% 0in /  0.0mm
17:34 43.7 °F /  6.5 °C 41 °F /  5.0 °C 30.2in /  1020.9hPa Calm   1.3mph /  2.1km/h 88% 0in /  0.0mm
17:39 43.5 °F /  6.4 °C 41 °F /  5.0 °C 30.2in /  1020.9hPa Calm   1.3mph /  2.1km/h 89% 0in /  0.0mm
17:44 43.5 °F /  6.4 °C 41 °F /  5.0 °C 30.2in /  1020.9hPa NW 1.1mph /  1.8km/h 3.1mph /  5.0km/h 89% 0in /  0.0mm
17:49 43.3 °F /  6.3 °C 41 °F /  5.0 °C 30.2in /  1020.9hPa NNW 5.8mph /  9.3km/h 5.8mph /  9.3km/h 90% 0in /  0.0mm
17:54 43 °F /  6.1 °C 41 °F /  5.0 °C 30.2in /  1020.9hPa Calm   5.8mph /  9.3km/h 91% 0in /  0.0mm
17:59 42.8 °F /  6.0 °C 41 °F /  5.0 °C 30.2in /  1021.9hPa Calm   4mph /  6.4km/h 91% 0in /  0.0mm
18:04 42.6 °F /  5.9 °C 41 °F /  5.0 °C 30.2in /  1021.9hPa Calm   2.5mph /  4.0km/h 91% 0in /  0.0mm
18:09 42.3 °F /  5.7 °C 41 °F /  5.0 °C 30.2in /  1021.9hPa Calm     91% 0in /  0.0mm
18:14 42.3 °F /  5.7 °C 41 °F /  5.0 °C 30.2in /  1021.9hPa Calm   3.1mph /  5.0km/h 92% 0in /  0.0mm
18:19 42.3 °F /  5.7 °C 41 °F /  5.0 °C 30.2in /  1021.9hPa Calm   3.1mph /  5.0km/h 93% 0in /  0.0mm
18:24 42.3 °F /  5.7 °C 41 °F /  5.0 °C 30.2in /  1021.9hPa Calm   3.4mph /  5.5km/h 93% 0in /  0.0mm
18:29 42.3 °F /  5.7 °C 41 °F /  5.0 °C 30.2in /  1021.9hPa West 1.6mph /  2.6km/h 3.4mph /  5.5km/h 94% 0in /  0.0mm
18:34 42.3 °F /  5.7 °C 41 °F /  5.0 °C 30.2in /  1021.9hPa NNW 0.9mph /  1.4km/h 3.6mph /  5.8km/h 94% 0in /  0.0mm
18:39 42.3 °F /  5.7 °C 41 °F /  5.0 °C 30.2in /  1021.9hPa Calm   3.6mph /  5.8km/h 95% 0in /  0.0mm
18:44 42.3 °F /  5.7 °C 41 °F /  5.0 °C 30.2in /  1022.9hPa Calm   2.5mph /  4.0km/h 95% 0in /  0.0mm
18:49 42.3 °F /  5.7 °C 41 °F /  5.0 °C 30.2in /  1022.9hPa Calm   1.6mph /  2.6km/h 95% 0in /  0.0mm
18:54 42.4 °F /  5.8 °C 42.8 °F /  6.0 °C 30.2in /  1022.9hPa Calm   2.5mph /  4.0km/h 95% 0in /  0.0mm
19:00 42.6 °F /  5.9 °C 42.8 °F /  6.0 °C 30.2in /  1022.9hPa NW 3.8mph /  6.1km/h 4.3mph /  6.9km/h 96% 0in /  0.0mm
19:05 42.8 °F /  6.0 °C 42.8 °F /  6.0 °C 30.2in /  1022.9hPa West 1.3mph /  2.1km/h 4mph /  6.4km/h 96% 0in /  0.0mm
19:10 43 °F /  6.1 °C 42.8 °F /  6.0 °C 30.2in /  1022.9hPa Calm   4mph /  6.4km/h 96% 0in /  0.0mm
19:15 43 °F /  6.1 °C 42.8 °F /  6.0 °C 30.2in /  1021.9hPa Calm   4mph /  6.4km/h 96% 0in /  0.0mm
19:20 43.2 °F /  6.2 °C 42.8 °F /  6.0 °C 30.2in /  1021.9hPa Calm   4mph /  6.4km/h 96% 0in /  0.0mm
19:25 43 °F /  6.1 °C 42.8 °F /  6.0 °C 30.2in /  1021.9hPa Calm   4mph /  6.4km/h 96% 0in /  0.0mm
19:30 43 °F /  6.1 °C 42.8 °F /  6.0 °C 30.2in /  1021.9hPa Calm   2.5mph /  4.0km/h 96% 0in /  0.0mm
19:35 43 °F /  6.1 °C 42.8 °F /  6.0 °C 30.2in /  1021.9hPa Calm   3.6mph /  5.8km/h 96% 0in /  0.0mm
19:40 42.8 °F /  6.0 °C 42.8 °F /  6.0 °C 30.2in /  1021.9hPa Calm   3.6mph /  5.8km/h 96% 0in /  0.0mm
19:45 42.6 °F /  5.9 °C 42.8 °F /  6.0 °C 30.2in /  1022.9hPa Calm     96% 0in /  0.0mm
19:50 42.4 °F /  5.8 °C 42.8 °F /  6.0 °C 30.2in /  1022.9hPa Calm   4mph /  6.4km/h 95% 0in /  0.0mm
19:55 42.3 °F /  5.7 °C 41 °F /  5.0 °C 30.2in /  1022.9hPa Calm   4mph /  6.4km/h 95% 0in /  0.0mm
20:00 42.1 °F /  5.6 °C 41 °F /  5.0 °C 30.2in /  1023.9hPa West 1.3mph /  2.1km/h 4mph /  6.4km/h 95% 0in /  0.0mm
20:05 42.3 °F /  5.7 °C 42.8 °F /  6.0 °C 30.2in /  1023.9hPa Calm   6mph /  9.7km/h 96% 0in /  0.0mm
20:10 42.4 °F /  5.8 °C 42.8 °F /  6.0 °C 30.2in /  1023.9hPa Calm   6mph /  9.7km/h 97% 0in /  0.0mm
20:15 42.6 °F /  5.9 °C 42.8 °F /  6.0 °C 30.3in /  1024.9hPa NW 2mph /  3.2km/h 4.7mph /  7.6km/h 97% 0in /  0.0mm
20:20 42.8 °F /  6.0 °C 42.8 °F /  6.0 °C 30.3in /  1024.9hPa Calm   6.5mph /  10.5km/h 97% 0in /  0.0mm
20:25 43 °F /  6.1 °C 42.8 °F /  6.0 °C 30.3in /  1024.9hPa NW 0.9mph /  1.4km/h 6.5mph /  10.5km/h 97% 0in /  0.0mm
20:30 43 °F /  6.1 °C 42.8 °F /  6.0 °C 30.3in /  1024.9hPa West 1.3mph /  2.1km/h 5.8mph /  9.3km/h 97% 0in /  0.0mm
20:35 43 °F /  6.1 °C 42.8 °F /  6.0 °C 30.3in /  1024.9hPa WNW 2.5mph /  4.0km/h 4.9mph /  7.9km/h 96% 0in /  0.0mm
20:40 43 °F /  6.1 °C 42.8 °F /  6.0 °C 30.3in /  1024.9hPa NNE 2.7mph /  4.3km/h 7.4mph /  11.9km/h 96% 0in /  0.0mm
20:46 43.2 °F /  6.2 °C 42.8 °F /  6.0 °C 30.3in /  1024.9hPa North 1.3mph /  2.1km/h 7.4mph /  11.9km/h 96% 0in /  0.0mm
20:51 43.2 °F /  6.2 °C 42.8 °F /  6.0 °C 30.3in /  1024.9hPa NNW 3.1mph /  5.0km/h 5.6mph /  9.0km/h 96% 0in /  0.0mm
20:56 43.3 °F /  6.3 °C 42.8 °F /  6.0 °C 30.3in /  1024.9hPa WNW 2.5mph /  4.0km/h 5.6mph /  9.0km/h 96% 0in /  0.0mm
21:01 43.3 °F /  6.3 °C 42.8 °F /  6.0 °C 30.3in /  1024.9hPa West 4.3mph /  6.9km/h 6mph /  9.7km/h 95% 0in /  0.0mm
21:06 43.3 °F /  6.3 °C 42.8 °F /  6.0 °C 30.3in /  1024.9hPa WNW 3.6mph /  5.8km/h 6mph /  9.7km/h 95% 0in /  0.0mm
21:11 43.3 °F /  6.3 °C 42.8 °F /  6.0 °C 30.3in /  1024.9hPa Calm   4.5mph /  7.2km/h 95% 0in /  0.0mm
21:16 43.3 °F /  6.3 °C 42.8 °F /  6.0 °C 30.3in /  1024.9hPa Calm   5.4mph /  8.7km/h 95% 0in /  0.0mm
21:21 43.3 °F /  6.3 °C 42.8 °F /  6.0 °C 30.3in /  1024.9hPa NNW 0.9mph /  1.4km/h 5.4mph /  8.7km/h 94% 0in /  0.0mm
21:26 43.3 °F /  6.3 °C 42.8 °F /  6.0 °C 30.3in /  1024.9hPa Calm   2.5mph /  4.0km/h 94% 0in /  0.0mm
21:31 43.2 °F /  6.2 °C 42.8 °F /  6.0 °C 30.3in /  1024.9hPa Calm   3.6mph /  5.8km/h 94% 0in /  0.0mm
21:36 43.2 °F /  6.2 °C 42.8 °F /  6.0 °C 30.3in /  1024.9hPa Calm   3.6mph /  5.8km/h 94% 0in /  0.0mm
21:41 43.2 °F /  6.2 °C 42.8 °F /  6.0 °C 30.3in /  1024.9hPa Calm   2.9mph /  4.7km/h 94% 0in /  0.0mm
21:46 43.2 °F /  6.2 °C 42.8 °F /  6.0 °C 30.3in /  1024.9hPa Calm   2.9mph /  4.7km/h 94% 0in /  0.0mm
21:51 43.2 °F /  6.2 °C 42.8 °F /  6.0 °C 30.3in /  1024.9hPa Calm   3.6mph /  5.8km/h 94% 0in /  0.0mm
21:56 43.2 °F /  6.2 °C 42.8 °F /  6.0 °C 30.3in /  1024.9hPa Calm   3.6mph /  5.8km/h 94% 0in /  0.0mm
22:01 43.2 °F /  6.2 °C 42.8 °F /  6.0 °C 30.3in /  1024.9hPa Calm   1.1mph /  1.8km/h 94% 0in /  0.0mm
22:07 43 °F /  6.1 °C 41 °F /  5.0 °C 30.3in /  1024.9hPa Calm     94% 0in /  0.0mm
22:12 43 °F /  6.1 °C 41 °F /  5.0 °C 30.3in /  1024.9hPa Calm   3.1mph /  5.0km/h 94% 0in /  0.0mm
22:17 43 °F /  6.1 °C 41 °F /  5.0 °C 30.3in /  1026.0hPa Calm   3.1mph /  5.0km/h 94% 0in /  0.0mm
22:22 42.6 °F /  5.9 °C 42.8 °F /  6.0 °C 30.3in /  1026.0hPa Calm   2.7mph /  4.3km/h 95% 0in /  0.0mm
22:27 42.4 °F /  5.8 °C 42.8 °F /  6.0 °C 30.3in /  1026.0hPa Calm   2.7mph /  4.3km/h 95% 0in /  0.0mm
22:32 42.3 °F /  5.7 °C 41 °F /  5.0 °C 30.3in /  1026.0hPa Calm   2.7mph /  4.3km/h 95% 0in /  0.0mm
22:37 42.1 °F /  5.6 °C 41 °F /  5.0 °C 30.3in /  1026.0hPa Calm   2.7mph /  4.3km/h 95% 0in /  0.0mm
22:42 42.1 °F /  5.6 °C 41 °F /  5.0 °C 30.3in /  1026.0hPa Calm   1.6mph /  2.6km/h 95% 0in /  0.0mm
22:48 41.9 °F /  5.5 °C 41 °F /  5.0 °C 30.3in /  1026.0hPa Calm   1.1mph /  1.8km/h 95% 0in /  0.0mm
22:53 41.7 °F /  5.4 °C 41 °F /  5.0 °C 30.3in /  1026.0hPa Calm     95% 0in /  0.0mm
22:58 41.7 °F /  5.4 °C 41 °F /  5.0 °C 30.3in /  1026.0hPa Calm   1.6mph /  2.6km/h 95% 0in /  0.0mm
23:03 41.7 °F /  5.4 °C 41 °F /  5.0 °C 30.3in /  1026.0hPa Calm   2mph /  3.2km/h 96% 0in /  0.0mm
23:08 41.5 °F /  5.3 °C 41 °F /  5.0 °C 30.3in /  1026.0hPa Calm   2mph /  3.2km/h 96% 0in /  0.0mm
23:13 41.5 °F /  5.3 °C 41 °F /  5.0 °C 30.3in /  1026.0hPa Calm   2.9mph /  4.7km/h 96% 0in /  0.0mm
23:18 41.4 °F /  5.2 °C 41 °F /  5.0 °C 30.3in /  1026.0hPa Calm   2.9mph /  4.7km/h 96% 0in /  0.0mm
23:23 41.2 °F /  5.1 °C 41 °F /  5.0 °C 30.3in /  1026.0hPa Calm   2.9mph /  4.7km/h 96% 0in /  0.0mm
23:28 41.2 °F /  5.1 °C 41 °F /  5.0 °C 30.3in /  1026.0hPa Calm     97% 0in /  0.0mm
23:33 41.4 °F /  5.2 °C 41 °F /  5.0 °C 30.3in /  1026.0hPa Calm     97% 0in /  0.0mm
23:38 41.4 °F /  5.2 °C 41 °F /  5.0 °C 30.3in /  1026.0hPa Calm     97% 0in /  0.0mm
23:43 41.4 °F /  5.2 °C 41 °F /  5.0 °C 30.3in /  1026.0hPa Calm     97% 0in /  0.0mm
23:48 41.2 °F /  5.1 °C 41 °F /  5.0 °C 30.3in /  1026.0hPa Calm     98% 0in /  0.0mm
23:53 41.2 °F /  5.1 °C 41 °F /  5.0 °C 30.3in /  1026.0hPa Calm     98% 0in /  0.0mm
23:58 41.2 °F /  5.1 °C 41 °F /  5.0 °C 30.3in /  1026.0hPa Calm     98% 0in /  0.0mm
Données Historique de Météo Turbie

Mise a jour : 22/05/2018 04:32:12
Généré par Cumulus 1.9.4 (1099)